sensor_id;sensor_type;location;lat;lon;timestamp;temperature;humidity
55083;DHT22;40978;52.850;6.506;2023-02-01T00:01:45;5.80;99.90
55083;DHT22;40978;52.850;6.506;2023-02-01T00:04:11;5.80;99.90
55083;DHT22;40978;52.850;6.506;2023-02-01T00:06:37;5.80;99.90
55083;DHT22;40978;52.850;6.506;2023-02-01T00:09:03;5.80;99.90
55083;DHT22;40978;52.850;6.506;2023-02-01T00:11:28;5.80;99.90
55083;DHT22;40978;52.850;6.506;2023-02-01T00:13:54;5.80;99.90
55083;DHT22;40978;52.850;6.506;2023-02-01T00:16:26;5.80;99.90
55083;DHT22;40978;52.850;6.506;2023-02-01T00:19:00;5.80;99.90
55083;DHT22;40978;52.850;6.506;2023-02-01T00:21:26;5.80;99.90
55083;DHT22;40978;52.850;6.506;2023-02-01T00:23:52;5.80;99.90
55083;DHT22;40978;52.850;6.506;2023-02-01T00:26:27;5.80;99.90
55083;DHT22;40978;52.850;6.506;2023-02-01T00:28:55;5.80;99.90
55083;DHT22;40978;52.850;6.506;2023-02-01T00:31:21;5.80;99.90
55083;DHT22;40978;52.850;6.506;2023-02-01T00:33:47;5.90;99.90
55083;DHT22;40978;52.850;6.506;2023-02-01T00:36:13;5.80;99.90
55083;DHT22;40978;52.850;6.506;2023-02-01T00:38:40;5.90;99.90
55083;DHT22;40978;52.850;6.506;2023-02-01T00:41:14;5.90;99.90
55083;DHT22;40978;52.850;6.506;2023-02-01T00:43:40;5.90;99.90
55083;DHT22;40978;52.850;6.506;2023-02-01T00:46:06;6.00;99.90
55083;DHT22;40978;52.850;6.506;2023-02-01T00:48:32;6.00;99.90
55083;DHT22;40978;52.850;6.506;2023-02-01T00:51:03;5.90;99.90
55083;DHT22;40978;52.850;6.506;2023-02-01T00:53:30;6.00;99.90
55083;DHT22;40978;52.850;6.506;2023-02-01T00:55:56;6.00;99.90
55083;DHT22;40978;52.850;6.506;2023-02-01T00:58:22;6.00;99.90
55083;DHT22;40978;52.850;6.506;2023-02-01T01:01:10;6.00;99.90
55083;DHT22;40978;52.850;6.506;2023-02-01T01:03:37;6.00;99.90
55083;DHT22;40978;52.850;6.506;2023-02-01T01:06:06;5.90;99.90
55083;DHT22;40978;52.850;6.506;2023-02-01T01:08:33;6.00;99.90
55083;DHT22;40978;52.850;6.506;2023-02-01T01:11:03;6.00;99.90
55083;DHT22;40978;52.850;6.506;2023-02-01T01:13:29;6.00;99.90
55083;DHT22;40978;52.850;6.506;2023-02-01T01:15:54;6.00;99.90
55083;DHT22;40978;52.850;6.506;2023-02-01T01:18:20;6.00;99.90
55083;DHT22;40978;52.850;6.506;2023-02-01T01:20:47;6.10;99.90
55083;DHT22;40978;52.850;6.506;2023-02-01T01:23:13;6.10;99.90
55083;DHT22;40978;52.850;6.506;2023-02-01T01:25:39;6.10;99.90
55083;DHT22;40978;52.850;6.506;2023-02-01T01:28:06;6.10;99.90
55083;DHT22;40978;52.850;6.506;2023-02-01T01:30:32;6.10;99.90
55083;DHT22;40978;52.850;6.506;2023-02-01T01:32:58;6.10;99.90
55083;DHT22;40978;52.850;6.506;2023-02-01T01:35:24;6.10;99.90
55083;DHT22;40978;52.850;6.506;2023-02-01T01:37:50;6.10;99.90
55083;DHT22;40978;52.850;6.506;2023-02-01T01:40:16;6.10;99.90
55083;DHT22;40978;52.850;6.506;2023-02-01T01:42:43;6.10;99.90
55083;DHT22;40978;52.850;6.506;2023-02-01T01:47:56;6.10;99.90
55083;DHT22;40978;52.850;6.506;2023-02-01T01:50:37;6.10;99.90
55083;DHT22;40978;52.850;6.506;2023-02-01T01:53:05;6.10;99.90
55083;DHT22;40978;52.850;6.506;2023-02-01T01:55:36;6.10;99.90
55083;DHT22;40978;52.850;6.506;2023-02-01T01:58:06;6.20;99.90
55083;DHT22;40978;52.850;6.506;2023-02-01T02:00:34;6.10;99.90
55083;DHT22;40978;52.850;6.506;2023-02-01T02:03:48;6.10;99.90
55083;DHT22;40978;52.850;6.506;2023-02-01T02:05:57;6.10;99.90
55083;DHT22;40978;52.850;6.506;2023-02-01T02:08:27;6.10;99.90
55083;DHT22;40978;52.850;6.506;2023-02-01T02:10:53;6.10;99.90
55083;DHT22;40978;52.850;6.506;2023-02-01T02:13:35;6.10;99.90
55083;DHT22;40978;52.850;6.506;2023-02-01T02:16:35;6.00;99.90
55083;DHT22;40978;52.850;6.506;2023-02-01T02:19:30;6.00;99.90
55083;DHT22;40978;52.850;6.506;2023-02-01T02:25:14;5.90;99.90
55083;DHT22;40978;52.850;6.506;2023-02-01T02:30:37;5.80;99.90
55083;DHT22;40978;52.850;6.506;2023-02-01T02:39:21;5.70;99.90
55083;DHT22;40978;52.850;6.506;2023-02-01T02:42:00;5.60;99.90
55083;DHT22;40978;52.850;6.506;2023-02-01T02:48:12;5.60;99.90
55083;DHT22;40978;52.850;6.506;2023-02-01T02:50:45;5.60;99.90
55083;DHT22;40978;52.850;6.506;2023-02-01T02:56:31;5.60;99.90
55083;DHT22;40978;52.850;6.506;2023-02-01T02:59:17;5.60;99.90
55083;DHT22;40978;52.850;6.506;2023-02-01T03:02:04;5.50;99.90
55083;DHT22;40978;52.850;6.506;2023-02-01T03:04:55;5.60;99.90
55083;DHT22;40978;52.850;6.506;2023-02-01T03:10:34;5.50;99.90
55083;DHT22;40978;52.850;6.506;2023-02-01T03:13:25;5.50;99.90
55083;DHT22;40978;52.850;6.506;2023-02-01T03:18:29;5.50;99.90
55083;DHT22;40978;52.850;6.506;2023-02-01T03:20:59;5.50;99.90
55083;DHT22;40978;52.850;6.506;2023-02-01T03:23:28;5.60;99.90
55083;DHT22;40978;52.850;6.506;2023-02-01T03:25:57;5.60;99.90
55083;DHT22;40978;52.850;6.506;2023-02-01T03:28:25;5.60;99.90
55083;DHT22;40978;52.850;6.506;2023-02-01T03:30:53;5.60;99.90
55083;DHT22;40978;52.850;6.506;2023-02-01T03:33:23;5.70;99.90
55083;DHT22;40978;52.850;6.506;2023-02-01T03:39:06;5.70;99.90
55083;DHT22;40978;52.850;6.506;2023-02-01T03:41:42;5.70;99.90
55083;DHT22;40978;52.850;6.506;2023-02-01T03:44:32;5.80;99.90
55083;DHT22;40978;52.850;6.506;2023-02-01T03:46:59;5.80;99.90
55083;DHT22;40978;52.850;6.506;2023-02-01T03:49:30;5.80;99.90
55083;DHT22;40978;52.850;6.506;2023-02-01T03:51:58;5.80;99.90
55083;DHT22;40978;52.850;6.506;2023-02-01T03:54:26;5.80;99.90
55083;DHT22;40978;52.850;6.506;2023-02-01T03:56:55;5.80;99.90
55083;DHT22;40978;52.850;6.506;2023-02-01T03:59:22;5.90;99.90
55083;DHT22;40978;52.850;6.506;2023-02-01T04:01:47;5.90;99.90
55083;DHT22;40978;52.850;6.506;2023-02-01T04:04:13;5.90;99.90
55083;DHT22;40978;52.850;6.506;2023-02-01T04:06:49;5.90;99.90
55083;DHT22;40978;52.850;6.506;2023-02-01T04:09:15;5.90;99.90
55083;DHT22;40978;52.850;6.506;2023-02-01T04:11:41;5.90;99.90
55083;DHT22;40978;52.850;6.506;2023-02-01T04:14:07;5.80;99.90
55083;DHT22;40978;52.850;6.506;2023-02-01T04:16:33;5.80;99.90
55083;DHT22;40978;52.850;6.506;2023-02-01T04:18:59;5.80;99.90
55083;DHT22;40978;52.850;6.506;2023-02-01T04:21:28;5.70;99.90
55083;DHT22;40978;52.850;6.506;2023-02-01T04:23:58;5.80;99.90
55083;DHT22;40978;52.850;6.506;2023-02-01T04:26:34;5.70;99.90
55083;DHT22;40978;52.850;6.506;2023-02-01T04:29:11;5.70;99.90
55083;DHT22;40978;52.850;6.506;2023-02-01T04:31:47;5.70;99.90
55083;DHT22;40978;52.850;6.506;2023-02-01T04:34:23;5.70;99.90
55083;DHT22;40978;52.850;6.506;2023-02-01T04:37:00;5.70;99.90
55083;DHT22;40978;52.850;6.506;2023-02-01T04:39:34;5.70;99.90
55083;DHT22;40978;52.850;6.506;2023-02-01T04:42:05;5.70;99.90
55083;DHT22;40978;52.850;6.506;2023-02-01T04:44:30;5.70;99.90
55083;DHT22;40978;52.850;6.506;2023-02-01T04:46:56;5.70;99.90
55083;DHT22;40978;52.850;6.506;2023-02-01T04:49:22;5.70;99.90
55083;DHT22;40978;52.850;6.506;2023-02-01T04:51:48;5.80;99.90
55083;DHT22;40978;52.850;6.506;2023-02-01T04:54:14;5.80;99.90
55083;DHT22;40978;52.850;6.506;2023-02-01T04:56:40;5.80;99.90
55083;DHT22;40978;52.850;6.506;2023-02-01T04:59:06;5.80;99.90
55083;DHT22;40978;52.850;6.506;2023-02-01T05:01:32;5.80;99.90
55083;DHT22;40978;52.850;6.506;2023-02-01T05:03:58;5.80;99.90
55083;DHT22;40978;52.850;6.506;2023-02-01T05:06:24;5.80;99.90
55083;DHT22;40978;52.850;6.506;2023-02-01T05:08:50;5.70;99.90
55083;DHT22;40978;52.850;6.506;2023-02-01T05:11:15;5.70;99.90
55083;DHT22;40978;52.850;6.506;2023-02-01T05:14:00;5.70;99.90
55083;DHT22;40978;52.850;6.506;2023-02-01T05:16:25;5.60;99.90
55083;DHT22;40978;52.850;6.506;2023-02-01T05:18:52;5.60;99.90
55083;DHT22;40978;52.850;6.506;2023-02-01T05:21:18;5.60;99.90
55083;DHT22;40978;52.850;6.506;2023-02-01T05:23:44;5.60;99.90
55083;DHT22;40978;52.850;6.506;2023-02-01T05:26:28;5.70;99.90
55083;DHT22;40978;52.850;6.506;2023-02-01T05:28:54;5.80;99.90
55083;DHT22;40978;52.850;6.506;2023-02-01T05:31:20;5.80;99.90
55083;DHT22;40978;52.850;6.506;2023-02-01T05:33:46;5.80;99.90
55083;DHT22;40978;52.850;6.506;2023-02-01T05:36:12;5.80;99.90
55083;DHT22;40978;52.850;6.506;2023-02-01T05:38:38;5.90;99.90
55083;DHT22;40978;52.850;6.506;2023-02-01T05:41:04;5.90;99.90
55083;DHT22;40978;52.850;6.506;2023-02-01T05:43:29;6.00;99.90
55083;DHT22;40978;52.850;6.506;2023-02-01T05:45:55;6.00;99.90
55083;DHT22;40978;52.850;6.506;2023-02-01T05:48:21;6.00;99.90
55083;DHT22;40978;52.850;6.506;2023-02-01T05:50:46;6.00;99.90
55083;DHT22;40978;52.850;6.506;2023-02-01T05:53:12;6.10;99.90
55083;DHT22;40978;52.850;6.506;2023-02-01T05:55:38;6.10;99.90
55083;DHT22;40978;52.850;6.506;2023-02-01T05:58:05;6.10;99.90
55083;DHT22;40978;52.850;6.506;2023-02-01T06:00:31;6.10;99.90
55083;DHT22;40978;52.850;6.506;2023-02-01T06:02:57;6.10;99.90
55083;DHT22;40978;52.850;6.506;2023-02-01T06:05:23;6.20;99.90
55083;DHT22;40978;52.850;6.506;2023-02-01T06:07:49;6.20;99.90
55083;DHT22;40978;52.850;6.506;2023-02-01T06:10:18;6.10;99.90
55083;DHT22;40978;52.850;6.506;2023-02-01T06:12:44;6.20;99.90
55083;DHT22;40978;52.850;6.506;2023-02-01T06:15:11;6.20;99.90
55083;DHT22;40978;52.850;6.506;2023-02-01T06:17:37;6.20;99.90
55083;DHT22;40978;52.850;6.506;2023-02-01T06:20:04;6.10;99.90
55083;DHT22;40978;52.850;6.506;2023-02-01T06:22:32;6.10;99.90
55083;DHT22;40978;52.850;6.506;2023-02-01T06:24:58;6.10;99.90
55083;DHT22;40978;52.850;6.506;2023-02-01T06:27:24;6.10;99.90
55083;DHT22;40978;52.850;6.506;2023-02-01T06:29:50;6.10;99.90
55083;DHT22;40978;52.850;6.506;2023-02-01T06:32:16;6.10;99.90
55083;DHT22;40978;52.850;6.506;2023-02-01T06:34:43;6.10;99.90
55083;DHT22;40978;52.850;6.506;2023-02-01T06:37:09;6.20;99.90
55083;DHT22;40978;52.850;6.506;2023-02-01T06:39:36;6.20;99.90
55083;DHT22;40978;52.850;6.506;2023-02-01T06:42:03;6.20;99.90
55083;DHT22;40978;52.850;6.506;2023-02-01T06:44:29;6.20;99.90
55083;DHT22;40978;52.850;6.506;2023-02-01T06:46:54;6.20;99.90
55083;DHT22;40978;52.850;6.506;2023-02-01T06:49:20;6.20;99.90
55083;DHT22;40978;52.850;6.506;2023-02-01T06:51:46;6.20;99.90
55083;DHT22;40978;52.850;6.506;2023-02-01T06:54:12;6.20;99.90
55083;DHT22;40978;52.850;6.506;2023-02-01T06:56:38;6.20;99.90
55083;DHT22;40978;52.850;6.506;2023-02-01T06:59:07;6.20;99.90
55083;DHT22;40978;52.850;6.506;2023-02-01T07:01:33;6.30;99.90
55083;DHT22;40978;52.850;6.506;2023-02-01T07:03:59;6.30;99.90
55083;DHT22;40978;52.850;6.506;2023-02-01T07:06:25;6.30;99.90
55083;DHT22;40978;52.850;6.506;2023-02-01T07:08:51;6.30;99.90
55083;DHT22;40978;52.850;6.506;2023-02-01T07:11:18;6.20;99.90
55083;DHT22;40978;52.850;6.506;2023-02-01T07:13:44;6.30;99.90
55083;DHT22;40978;52.850;6.506;2023-02-01T07:16:13;6.30;99.90
55083;DHT22;40978;52.850;6.506;2023-02-01T07:18:39;6.30;99.90
55083;DHT22;40978;52.850;6.506;2023-02-01T07:21:05;6.30;99.90
55083;DHT22;40978;52.850;6.506;2023-02-01T07:23:31;6.30;99.90
55083;DHT22;40978;52.850;6.506;2023-02-01T07:26:02;6.30;99.90
55083;DHT22;40978;52.850;6.506;2023-02-01T07:28:30;6.30;99.90
55083;DHT22;40978;52.850;6.506;2023-02-01T07:31:04;6.30;99.90
55083;DHT22;40978;52.850;6.506;2023-02-01T07:33:31;6.30;99.90
55083;DHT22;40978;52.850;6.506;2023-02-01T07:36:01;6.40;99.90
55083;DHT22;40978;52.850;6.506;2023-02-01T07:38:27;6.30;99.90
55083;DHT22;40978;52.850;6.506;2023-02-01T07:40:58;6.40;99.90
55083;DHT22;40978;52.850;6.506;2023-02-01T07:43:24;6.30;99.90
55083;DHT22;40978;52.850;6.506;2023-02-01T07:45:51;6.40;99.90
55083;DHT22;40978;52.850;6.506;2023-02-01T07:48:17;6.40;99.90
55083;DHT22;40978;52.850;6.506;2023-02-01T07:50:43;6.30;99.90
55083;DHT22;40978;52.850;6.506;2023-02-01T07:53:09;6.30;99.90
55083;DHT22;40978;52.850;6.506;2023-02-01T07:55:37;6.30;99.90
55083;DHT22;40978;52.850;6.506;2023-02-01T07:58:03;6.30;99.90
55083;DHT22;40978;52.850;6.506;2023-02-01T08:00:29;6.20;99.90
55083;DHT22;40978;52.850;6.506;2023-02-01T08:03:13;6.20;99.90
55083;DHT22;40978;52.850;6.506;2023-02-01T08:05:39;6.20;99.90
55083;DHT22;40978;52.850;6.506;2023-02-01T08:08:05;6.20;99.90
55083;DHT22;40978;52.850;6.506;2023-02-01T08:10:31;6.20;99.90
55083;DHT22;40978;52.850;6.506;2023-02-01T08:13:00;6.10;99.90
55083;DHT22;40978;52.850;6.506;2023-02-01T08:15:29;6.10;99.90
55083;DHT22;40978;52.850;6.506;2023-02-01T08:17:55;6.10;99.90
55083;DHT22;40978;52.850;6.506;2023-02-01T08:20:22;6.10;99.90
55083;DHT22;40978;52.850;6.506;2023-02-01T08:22:54;6.10;99.90
55083;DHT22;40978;52.850;6.506;2023-02-01T08:25:20;6.10;99.90
55083;DHT22;40978;52.850;6.506;2023-02-01T08:27:46;6.20;99.90
55083;DHT22;40978;52.850;6.506;2023-02-01T08:30:12;6.20;99.90
55083;DHT22;40978;52.850;6.506;2023-02-01T08:32:38;6.20;99.90
55083;DHT22;40978;52.850;6.506;2023-02-01T08:35:04;6.20;99.90
55083;DHT22;40978;52.850;6.506;2023-02-01T08:37:30;6.30;99.90
55083;DHT22;40978;52.850;6.506;2023-02-01T08:39:56;6.30;99.90
55083;DHT22;40978;52.850;6.506;2023-02-01T08:42:22;6.40;99.90
55083;DHT22;40978;52.850;6.506;2023-02-01T08:45:07;6.50;99.90
55083;DHT22;40978;52.850;6.506;2023-02-01T08:47:35;6.40;99.90
55083;DHT22;40978;52.850;6.506;2023-02-01T08:50:01;6.50;99.90
55083;DHT22;40978;52.850;6.506;2023-02-01T08:52:27;6.50;99.90
55083;DHT22;40978;52.850;6.506;2023-02-01T08:54:53;6.50;99.90
55083;DHT22;40978;52.850;6.506;2023-02-01T08:57:18;6.50;99.90
55083;DHT22;40978;52.850;6.506;2023-02-01T08:59:44;6.50;99.90
55083;DHT22;40978;52.850;6.506;2023-02-01T09:02:15;6.60;99.90
55083;DHT22;40978;52.850;6.506;2023-02-01T09:04:41;6.60;99.90
55083;DHT22;40978;52.850;6.506;2023-02-01T09:07:10;6.60;99.90
55083;DHT22;40978;52.850;6.506;2023-02-01T09:09:36;6.60;99.90
55083;DHT22;40978;52.850;6.506;2023-02-01T09:12:03;6.70;99.90
55083;DHT22;40978;52.850;6.506;2023-02-01T09:14:29;6.70;99.90
55083;DHT22;40978;52.850;6.506;2023-02-01T09:16:55;6.70;99.90
55083;DHT22;40978;52.850;6.506;2023-02-01T09:19:21;6.70;99.90
55083;DHT22;40978;52.850;6.506;2023-02-01T09:21:46;6.70;99.90
55083;DHT22;40978;52.850;6.506;2023-02-01T09:24:12;6.70;99.90
55083;DHT22;40978;52.850;6.506;2023-02-01T09:26:38;6.70;99.90
55083;DHT22;40978;52.850;6.506;2023-02-01T09:29:04;6.70;99.90
55083;DHT22;40978;52.850;6.506;2023-02-01T09:31:32;6.70;99.90
55083;DHT22;40978;52.850;6.506;2023-02-01T09:33:58;6.70;99.90
55083;DHT22;40978;52.850;6.506;2023-02-01T09:36:23;6.70;99.90
55083;DHT22;40978;52.850;6.506;2023-02-01T09:38:49;6.70;99.90
55083;DHT22;40978;52.850;6.506;2023-02-01T09:41:57;6.70;99.90
55083;DHT22;40978;52.850;6.506;2023-02-01T09:47:29;6.70;99.90
55083;DHT22;40978;52.850;6.506;2023-02-01T09:52:45;6.70;99.90
55083;DHT22;40978;52.850;6.506;2023-02-01T09:55:18;6.70;99.90
55083;DHT22;40978;52.850;6.506;2023-02-01T09:58:07;6.60;99.90
55083;DHT22;40978;52.850;6.506;2023-02-01T10:00:37;6.60;99.90
55083;DHT22;40978;52.850;6.506;2023-02-01T10:03:03;6.50;99.90
55083;DHT22;40978;52.850;6.506;2023-02-01T10:22:48;6.30;99.90
55083;DHT22;40978;52.850;6.506;2023-02-01T10:25:17;6.30;99.90
55083;DHT22;40978;52.850;6.506;2023-02-01T10:27:49;6.30;99.90
55083;DHT22;40978;52.850;6.506;2023-02-01T10:30:27;6.20;99.90
55083;DHT22;40978;52.850;6.506;2023-02-01T10:33:17;6.30;99.90
55083;DHT22;40978;52.850;6.506;2023-02-01T10:35:45;6.30;99.90
55083;DHT22;40978;52.850;6.506;2023-02-01T10:38:27;6.30;99.90
55083;DHT22;40978;52.850;6.506;2023-02-01T10:41:10;6.30;99.90
55083;DHT22;40978;52.850;6.506;2023-02-01T10:43:36;6.30;99.90
55083;DHT22;40978;52.850;6.506;2023-02-01T10:46:04;6.20;99.90
55083;DHT22;40978;52.850;6.506;2023-02-01T10:48:31;6.20;99.90
55083;DHT22;40978;52.850;6.506;2023-02-01T10:51:05;6.20;99.90
55083;DHT22;40978;52.850;6.506;2023-02-01T10:56:12;6.30;99.90
55083;DHT22;40978;52.850;6.506;2023-02-01T10:58:46;6.30;99.90
55083;DHT22;40978;52.850;6.506;2023-02-01T11:01:44;6.30;99.90
55083;DHT22;40978;52.850;6.506;2023-02-01T11:04:18;6.40;99.90
55083;DHT22;40978;52.850;6.506;2023-02-01T11:09:41;6.40;99.90
55083;DHT22;40978;52.850;6.506;2023-02-01T11:12:32;6.40;99.90
55083;DHT22;40978;52.850;6.506;2023-02-01T11:15:21;6.40;99.90
55083;DHT22;40978;52.850;6.506;2023-02-01T11:17:49;6.40;99.90
55083;DHT22;40978;52.850;6.506;2023-02-01T11:22:57;6.50;99.90
55083;DHT22;40978;52.850;6.506;2023-02-01T11:25:24;6.50;99.90
55083;DHT22;40978;52.850;6.506;2023-02-01T11:27:51;6.50;99.90
55083;DHT22;40978;52.850;6.506;2023-02-01T11:30:51;6.60;99.90
55083;DHT22;40978;52.850;6.506;2023-02-01T11:33:20;6.60;99.90
55083;DHT22;40978;52.850;6.506;2023-02-01T11:35:51;6.70;99.90
55083;DHT22;40978;52.850;6.506;2023-02-01T11:38:26;6.70;99.90
55083;DHT22;40978;52.850;6.506;2023-02-01T11:40:53;6.70;99.90
55083;DHT22;40978;52.850;6.506;2023-02-01T11:43:23;6.70;99.90
55083;DHT22;40978;52.850;6.506;2023-02-01T11:48:20;6.60;99.90
55083;DHT22;40978;52.850;6.506;2023-02-01T11:59:39;6.60;99.90
55083;DHT22;40978;52.850;6.506;2023-02-01T12:13:54;6.40;99.90
55083;DHT22;40978;52.850;6.506;2023-02-01T12:19:17;6.40;99.90
55083;DHT22;40978;52.850;6.506;2023-02-01T12:24:40;6.50;99.90
55083;DHT22;40978;52.850;6.506;2023-02-01T12:29:58;6.60;99.90
55083;DHT22;40978;52.850;6.506;2023-02-01T12:38:21;6.90;99.90
55083;DHT22;40978;52.850;6.506;2023-02-01T12:44:04;7.00;99.90
55083;DHT22;40978;52.850;6.506;2023-02-01T12:46:41;7.10;99.90
55083;DHT22;40978;52.850;6.506;2023-02-01T12:52:02;7.20;99.90
55083;DHT22;40978;52.850;6.506;2023-02-01T12:54:43;7.20;99.90
55083;DHT22;40978;52.850;6.506;2023-02-01T12:57:27;7.30;99.90
55083;DHT22;40978;52.850;6.506;2023-02-01T13:08:52;7.30;99.90
55083;DHT22;40978;52.850;6.506;2023-02-01T13:11:28;7.40;99.90
55083;DHT22;40978;52.850;6.506;2023-02-01T13:14:30;7.50;99.90
55083;DHT22;40978;52.850;6.506;2023-02-01T13:17:00;7.40;99.90
55083;DHT22;40978;52.850;6.506;2023-02-01T13:22:30;7.30;99.90
55083;DHT22;40978;52.850;6.506;2023-02-01T13:25:46;7.20;99.90
55083;DHT22;40978;52.850;6.506;2023-02-01T13:28:17;7.20;99.90
55083;DHT22;40978;52.850;6.506;2023-02-01T13:36:48;7.20;99.90
55083;DHT22;40978;52.850;6.506;2023-02-01T13:42:00;7.30;99.90
55083;DHT22;40978;52.850;6.506;2023-02-01T13:44:33;7.30;99.90
55083;DHT22;40978;52.850;6.506;2023-02-01T13:47:08;7.30;99.90
55083;DHT22;40978;52.850;6.506;2023-02-01T13:49:39;7.40;99.90
55083;DHT22;40978;52.850;6.506;2023-02-01T13:52:05;7.40;99.90
55083;DHT22;40978;52.850;6.506;2023-02-01T13:54:38;7.50;99.90
55083;DHT22;40978;52.850;6.506;2023-02-01T13:57:13;7.60;99.90
55083;DHT22;40978;52.850;6.506;2023-02-01T13:59:52;7.70;99.90
55083;DHT22;40978;52.850;6.506;2023-02-01T14:13:38;7.50;99.90
55083;DHT22;40978;52.850;6.506;2023-02-01T14:21:32;7.60;99.90
55083;DHT22;40978;52.850;6.506;2023-02-01T14:26:47;7.70;99.90
55083;DHT22;40978;52.850;6.506;2023-02-01T14:34:39;7.70;99.90
55083;DHT22;40978;52.850;6.506;2023-02-01T14:37:32;7.70;99.90
55083;DHT22;40978;52.850;6.506;2023-02-01T14:47:51;7.80;99.90
55083;DHT22;40978;52.850;6.506;2023-02-01T14:58:29;7.80;99.90
55083;DHT22;40978;52.850;6.506;2023-02-01T15:00:59;7.90;99.90
55083;DHT22;40978;52.850;6.506;2023-02-01T15:04:04;7.90;99.90
55083;DHT22;40978;52.850;6.506;2023-02-01T15:09:21;7.80;99.90
55083;DHT22;40978;52.850;6.506;2023-02-01T15:12:01;7.70;99.90
55083;DHT22;40978;52.850;6.506;2023-02-01T15:14:29;7.70;99.90
55083;DHT22;40978;52.850;6.506;2023-02-01T15:16:55;7.60;99.90
55083;DHT22;40978;52.850;6.506;2023-02-01T15:19:23;7.60;99.90
55083;DHT22;40978;52.850;6.506;2023-02-01T15:21:53;7.70;99.90
55083;DHT22;40978;52.850;6.506;2023-02-01T15:26:46;7.70;99.90
55083;DHT22;40978;52.850;6.506;2023-02-01T15:29:13;7.80;99.90
55083;DHT22;40978;52.850;6.506;2023-02-01T15:31:48;7.80;99.90
55083;DHT22;40978;52.850;6.506;2023-02-01T15:34:14;7.80;99.90
55083;DHT22;40978;52.850;6.506;2023-02-01T15:36:41;7.80;99.90
55083;DHT22;40978;52.850;6.506;2023-02-01T15:39:24;7.80;99.90
55083;DHT22;40978;52.850;6.506;2023-02-01T15:42:12;7.70;99.90
55083;DHT22;40978;52.850;6.506;2023-02-01T15:44:44;7.70;99.90
55083;DHT22;40978;52.850;6.506;2023-02-01T15:47:25;7.70;99.90
55083;DHT22;40978;52.850;6.506;2023-02-01T15:49:53;7.70;99.90
55083;DHT22;40978;52.850;6.506;2023-02-01T15:52:35;7.70;99.90
55083;DHT22;40978;52.850;6.506;2023-02-01T15:55:05;7.70;99.90
55083;DHT22;40978;52.850;6.506;2023-02-01T15:57:36;7.70;99.90
55083;DHT22;40978;52.850;6.506;2023-02-01T16:00:24;7.60;99.90
55083;DHT22;40978;52.850;6.506;2023-02-01T16:02:58;7.60;99.90
55083;DHT22;40978;52.850;6.506;2023-02-01T16:05:44;7.60;99.90
55083;DHT22;40978;52.850;6.506;2023-02-01T16:08:21;7.50;99.90
55083;DHT22;40978;52.850;6.506;2023-02-01T16:10:49;7.50;99.90
55083;DHT22;40978;52.850;6.506;2023-02-01T16:13:17;7.50;99.90
55083;DHT22;40978;52.850;6.506;2023-02-01T16:15:43;7.50;99.90
55083;DHT22;40978;52.850;6.506;2023-02-01T16:18:10;7.50;99.90
55083;DHT22;40978;52.850;6.506;2023-02-01T16:20:38;7.50;99.90
55083;DHT22;40978;52.850;6.506;2023-02-01T16:23:05;7.50;99.90
55083;DHT22;40978;52.850;6.506;2023-02-01T16:25:31;7.50;99.90
55083;DHT22;40978;52.850;6.506;2023-02-01T16:27:57;7.40;99.90
55083;DHT22;40978;52.850;6.506;2023-02-01T16:30:23;7.30;99.90
55083;DHT22;40978;52.850;6.506;2023-02-01T16:32:54;7.20;99.90
55083;DHT22;40978;52.850;6.506;2023-02-01T16:35:32;7.20;99.90
55083;DHT22;40978;52.850;6.506;2023-02-01T16:38:02;7.20;99.90
55083;DHT22;40978;52.850;6.506;2023-02-01T16:40:34;7.10;99.90
55083;DHT22;40978;52.850;6.506;2023-02-01T16:43:00;7.10;99.90
55083;DHT22;40978;52.850;6.506;2023-02-01T16:45:26;7.00;99.90
55083;DHT22;40978;52.850;6.506;2023-02-01T16:47:54;7.00;99.90
55083;DHT22;40978;52.850;6.506;2023-02-01T16:50:22;7.00;99.90
55083;DHT22;40978;52.850;6.506;2023-02-01T16:52:48;6.90;99.90
55083;DHT22;40978;52.850;6.506;2023-02-01T16:55:16;6.90;99.90
55083;DHT22;40978;52.850;6.506;2023-02-01T16:57:43;6.80;99.90
55083;DHT22;40978;52.850;6.506;2023-02-01T17:00:10;6.80;99.90
55083;DHT22;40978;52.850;6.506;2023-02-01T17:02:37;6.80;99.90
55083;DHT22;40978;52.850;6.506;2023-02-01T17:05:04;6.70;99.90
55083;DHT22;40978;52.850;6.506;2023-02-01T17:07:30;6.70;99.90
55083;DHT22;40978;52.850;6.506;2023-02-01T17:09:55;6.70;99.90
55083;DHT22;40978;52.850;6.506;2023-02-01T17:12:22;6.70;99.90
55083;DHT22;40978;52.850;6.506;2023-02-01T17:14:48;6.70;99.90
55083;DHT22;40978;52.850;6.506;2023-02-01T17:17:14;6.70;99.90
55083;DHT22;40978;52.850;6.506;2023-02-01T17:19:40;6.70;99.90
55083;DHT22;40978;52.850;6.506;2023-02-01T17:22:06;6.70;99.90
55083;DHT22;40978;52.850;6.506;2023-02-01T17:24:32;6.60;99.90
55083;DHT22;40978;52.850;6.506;2023-02-01T17:26:57;6.60;99.90
55083;DHT22;40978;52.850;6.506;2023-02-01T17:29:23;6.60;99.90
55083;DHT22;40978;52.850;6.506;2023-02-01T17:31:52;6.60;99.90
55083;DHT22;40978;52.850;6.506;2023-02-01T17:34:19;6.60;99.90
55083;DHT22;40978;52.850;6.506;2023-02-01T17:36:46;6.50;99.90
55083;DHT22;40978;52.850;6.506;2023-02-01T17:39:13;6.50;99.90
55083;DHT22;40978;52.850;6.506;2023-02-01T17:42:00;6.40;99.90
55083;DHT22;40978;52.850;6.506;2023-02-01T17:44:26;6.40;99.90
55083;DHT22;40978;52.850;6.506;2023-02-01T17:46:51;6.40;99.90
55083;DHT22;40978;52.850;6.506;2023-02-01T17:49:17;6.40;99.90
55083;DHT22;40978;52.850;6.506;2023-02-01T17:51:43;6.30;99.90
55083;DHT22;40978;52.850;6.506;2023-02-01T17:54:12;6.40;99.90
55083;DHT22;40978;52.850;6.506;2023-02-01T17:56:37;6.30;99.90
55083;DHT22;40978;52.850;6.506;2023-02-01T17:59:03;6.30;99.90
55083;DHT22;40978;52.850;6.506;2023-02-01T18:01:29;6.20;99.90
55083;DHT22;40978;52.850;6.506;2023-02-01T18:03:54;6.20;99.90
55083;DHT22;40978;52.850;6.506;2023-02-01T18:06:23;6.10;99.90
55083;DHT22;40978;52.850;6.506;2023-02-01T18:08:51;6.10;99.90
55083;DHT22;40978;52.850;6.506;2023-02-01T18:11:18;6.10;99.90
55083;DHT22;40978;52.850;6.506;2023-02-01T18:13:45;6.10;99.90
55083;DHT22;40978;52.850;6.506;2023-02-01T18:16:26;6.10;99.90
55083;DHT22;40978;52.850;6.506;2023-02-01T18:18:52;6.10;99.90
55083;DHT22;40978;52.850;6.506;2023-02-01T18:21:20;6.00;99.90
55083;DHT22;40978;52.850;6.506;2023-02-01T18:23:47;6.00;99.90
55083;DHT22;40978;52.850;6.506;2023-02-01T18:26:15;6.00;99.90
55083;DHT22;40978;52.850;6.506;2023-02-01T18:28:41;6.00;99.90
55083;DHT22;40978;52.850;6.506;2023-02-01T18:31:20;6.00;99.90
55083;DHT22;40978;52.850;6.506;2023-02-01T18:33:47;6.00;99.90
55083;DHT22;40978;52.850;6.506;2023-02-01T18:36:13;6.10;99.90
55083;DHT22;40978;52.850;6.506;2023-02-01T18:38:40;6.00;99.90
55083;DHT22;40978;52.850;6.506;2023-02-01T18:41:16;6.00;99.90
55083;DHT22;40978;52.850;6.506;2023-02-01T18:43:42;6.10;99.90
55083;DHT22;40978;52.850;6.506;2023-02-01T18:46:09;6.10;99.90
55083;DHT22;40978;52.850;6.506;2023-02-01T18:48:35;6.00;99.90
55083;DHT22;40978;52.850;6.506;2023-02-01T18:51:01;6.00;99.90
55083;DHT22;40978;52.850;6.506;2023-02-01T18:53:27;6.00;99.90
55083;DHT22;40978;52.850;6.506;2023-02-01T18:55:54;6.00;99.90